sensor_id;sensor_type;location;lat;lon;timestamp;P1;durP1;ratioP1;P2;durP2;ratioP2
20241;SDS011;10279;46.388;8.116;2022-11-06T00:01:30;1.43;;;0.50;;
20241;SDS011;10279;46.388;8.116;2022-11-06T00:03:57;0.93;;;0.60;;
20241;SDS011;10279;46.388;8.116;2022-11-06T00:06:25;0.53;;;0.53;;
20241;SDS011;10279;46.388;8.116;2022-11-06T00:09:11;1.57;;;0.97;;
20241;SDS011;10279;46.388;8.116;2022-11-06T00:11:39;1.50;;;0.63;;
20241;SDS011;10279;46.388;8.116;2022-11-06T00:14:07;0.50;;;0.50;;
20241;SDS011;10279;46.388;8.116;2022-11-06T00:16:38;0.70;;;0.70;;
20241;SDS011;10279;46.388;8.116;2022-11-06T00:19:06;0.60;;;0.60;;
20241;SDS011;10279;46.388;8.116;2022-11-06T00:21:35;0.80;;;0.80;;
20241;SDS011;10279;46.388;8.116;2022-11-06T00:24:03;0.50;;;0.50;;
20241;SDS011;10279;46.388;8.116;2022-11-06T00:26:32;0.70;;;0.70;;
20241;SDS011;10279;46.388;8.116;2022-11-06T00:29:00;0.30;;;0.30;;
20241;SDS011;10279;46.388;8.116;2022-11-06T00:31:29;0.60;;;0.60;;
20241;SDS011;10279;46.388;8.116;2022-11-06T00:33:57;0.53;;;0.50;;
20241;SDS011;10279;46.388;8.116;2022-11-06T00:36:25;0.40;;;0.40;;
20241;SDS011;10279;46.388;8.116;2022-11-06T00:38:55;0.50;;;0.50;;
20241;SDS011;10279;46.388;8.116;2022-11-06T00:41:23;0.80;;;0.57;;
20241;SDS011;10279;46.388;8.116;2022-11-06T00:43:54;0.40;;;0.40;;
20241;SDS011;10279;46.388;8.116;2022-11-06T00:46:22;1.17;;;0.40;;
20241;SDS011;10279;46.388;8.116;2022-11-06T00:48:50;0.50;;;0.50;;
20241;SDS011;10279;46.388;8.116;2022-11-06T00:51:19;0.80;;;0.50;;
20241;SDS011;10279;46.388;8.116;2022-11-06T00:53:47;0.43;;;0.40;;
20241;SDS011;10279;46.388;8.116;2022-11-06T00:56:16;1.17;;;0.43;;
20241;SDS011;10279;46.388;8.116;2022-11-06T00:58:44;1.60;;;0.40;;
20241;SDS011;10279;46.388;8.116;2022-11-06T01:01:13;0.40;;;0.40;;
20241;SDS011;10279;46.388;8.116;2022-11-06T01:03:42;0.80;;;0.70;;
20241;SDS011;10279;46.388;8.116;2022-11-06T01:06:11;0.70;;;0.70;;
20241;SDS011;10279;46.388;8.116;2022-11-06T01:08:39;0.37;;;0.37;;
20241;SDS011;10279;46.388;8.116;2022-11-06T01:11:11;0.77;;;0.50;;
20241;SDS011;10279;46.388;8.116;2022-11-06T01:13:38;0.70;;;0.60;;
20241;SDS011;10279;46.388;8.116;2022-11-06T01:16:07;1.00;;;0.47;;
20241;SDS011;10279;46.388;8.116;2022-11-06T01:18:35;0.93;;;0.77;;
20241;SDS011;10279;46.388;8.116;2022-11-06T01:21:06;0.67;;;0.60;;
20241;SDS011;10279;46.388;8.116;2022-11-06T01:23:35;1.30;;;0.60;;
20241;SDS011;10279;46.388;8.116;2022-11-06T01:26:03;0.37;;;0.37;;
20241;SDS011;10279;46.388;8.116;2022-11-06T01:28:31;1.57;;;0.40;;
20241;SDS011;10279;46.388;8.116;2022-11-06T01:31:02;0.90;;;0.50;;
20241;SDS011;10279;46.388;8.116;2022-11-06T01:33:33;0.50;;;0.50;;
20241;SDS011;10279;46.388;8.116;2022-11-06T01:36:00;0.43;;;0.43;;
20241;SDS011;10279;46.388;8.116;2022-11-06T01:38:28;0.30;;;0.30;;
20241;SDS011;10279;46.388;8.116;2022-11-06T01:40:55;0.57;;;0.57;;
20241;SDS011;10279;46.388;8.116;2022-11-06T01:43:28;0.47;;;0.47;;
20241;SDS011;10279;46.388;8.116;2022-11-06T01:46:09;0.60;;;0.57;;
20241;SDS011;10279;46.388;8.116;2022-11-06T01:48:38;0.60;;;0.60;;
20241;SDS011;10279;46.388;8.116;2022-11-06T01:51:06;0.60;;;0.60;;
20241;SDS011;10279;46.388;8.116;2022-11-06T01:53:34;1.10;;;0.50;;
20241;SDS011;10279;46.388;8.116;2022-11-06T01:56:02;3.07;;;0.60;;
20241;SDS011;10279;46.388;8.116;2022-11-06T01:58:31;0.67;;;0.60;;
20241;SDS011;10279;46.388;8.116;2022-11-06T02:00:59;0.77;;;0.60;;
20241;SDS011;10279;46.388;8.116;2022-11-06T02:03:28;0.40;;;0.40;;
20241;SDS011;10279;46.388;8.116;2022-11-06T02:05:55;0.40;;;0.40;;
20241;SDS011;10279;46.388;8.116;2022-11-06T02:08:23;0.60;;;0.60;;
20241;SDS011;10279;46.388;8.116;2022-11-06T02:10:51;0.40;;;0.40;;
20241;SDS011;10279;46.388;8.116;2022-11-06T02:28:53;0.30;;;0.30;;
20241;SDS011;10279;46.388;8.116;2022-11-06T02:31:24;0.43;;;0.43;;
20241;SDS011;10279;46.388;8.116;2022-11-06T02:34:00;0.60;;;0.60;;
20241;SDS011;10279;46.388;8.116;2022-11-06T02:36:30;0.30;;;0.30;;
20241;SDS011;10279;46.388;8.116;2022-11-06T02:39:00;0.40;;;0.40;;
20241;SDS011;10279;46.388;8.116;2022-11-06T02:41:30;0.50;;;0.33;;
20241;SDS011;10279;46.388;8.116;2022-11-06T02:43:58;0.40;;;0.40;;
20241;SDS011;10279;46.388;8.116;2022-11-06T02:46:36;0.47;;;0.47;;
20241;SDS011;10279;46.388;8.116;2022-11-06T02:49:07;0.40;;;0.40;;
20241;SDS011;10279;46.388;8.116;2022-11-06T02:51:37;0.60;;;0.50;;
20241;SDS011;10279;46.388;8.116;2022-11-06T02:54:06;0.50;;;0.50;;
20241;SDS011;10279;46.388;8.116;2022-11-06T02:56:36;0.50;;;0.50;;
20241;SDS011;10279;46.388;8.116;2022-11-06T02:59:07;0.40;;;0.40;;
20241;SDS011;10279;46.388;8.116;2022-11-06T03:01:37;0.40;;;0.40;;
20241;SDS011;10279;46.388;8.116;2022-11-06T03:04:09;0.50;;;0.50;;
20241;SDS011;10279;46.388;8.116;2022-11-06T03:06:39;0.33;;;0.33;;
20241;SDS011;10279;46.388;8.116;2022-11-06T03:09:09;0.50;;;0.50;;
20241;SDS011;10279;46.388;8.116;2022-11-06T03:11:38;0.30;;;0.30;;
20241;SDS011;10279;46.388;8.116;2022-11-06T03:14:13;2.50;;;0.70;;
20241;SDS011;10279;46.388;8.116;2022-11-06T03:24:23;0.30;;;0.30;;
20241;SDS011;10279;46.388;8.116;2022-11-06T03:26:56;0.40;;;0.40;;
20241;SDS011;10279;46.388;8.116;2022-11-06T03:31:59;1.00;;;0.40;;
20241;SDS011;10279;46.388;8.116;2022-11-06T03:34:28;1.83;;;0.40;;
20241;SDS011;10279;46.388;8.116;2022-11-06T03:37:00;0.83;;;0.50;;
20241;SDS011;10279;46.388;8.116;2022-11-06T03:39:34;0.73;;;0.40;;
20241;SDS011;10279;46.388;8.116;2022-11-06T03:42:05;0.50;;;0.40;;
20241;SDS011;10279;46.388;8.116;2022-11-06T03:44:33;0.57;;;0.53;;
20241;SDS011;10279;46.388;8.116;2022-11-06T03:47:06;0.50;;;0.50;;
20241;SDS011;10279;46.388;8.116;2022-11-06T03:49:36;1.30;;;0.33;;
20241;SDS011;10279;46.388;8.116;2022-11-06T03:52:11;0.40;;;0.40;;
20241;SDS011;10279;46.388;8.116;2022-11-06T03:57:40;0.43;;;0.43;;
20241;SDS011;10279;46.388;8.116;2022-11-06T04:00:10;0.27;;;0.27;;
20241;SDS011;10279;46.388;8.116;2022-11-06T04:02:39;0.20;;;0.20;;
20241;SDS011;10279;46.388;8.116;2022-11-06T04:05:12;0.40;;;0.40;;
20241;SDS011;10279;46.388;8.116;2022-11-06T04:07:42;0.50;;;0.50;;
20241;SDS011;10279;46.388;8.116;2022-11-06T04:10:34;0.77;;;0.50;;
20241;SDS011;10279;46.388;8.116;2022-11-06T04:13:20;0.30;;;0.30;;
20241;SDS011;10279;46.388;8.116;2022-11-06T04:16:07;0.47;;;0.47;;
20241;SDS011;10279;46.388;8.116;2022-11-06T04:18:35;0.40;;;0.40;;
20241;SDS011;10279;46.388;8.116;2022-11-06T04:21:10;0.30;;;0.30;;
20241;SDS011;10279;46.388;8.116;2022-11-06T04:34:52;0.67;;;0.47;;
20241;SDS011;10279;46.388;8.116;2022-11-06T04:37:35;0.50;;;0.30;;
20241;SDS011;10279;46.388;8.116;2022-11-06T04:43:07;0.80;;;0.40;;
20241;SDS011;10279;46.388;8.116;2022-11-06T04:45:39;1.27;;;0.40;;
20241;SDS011;10279;46.388;8.116;2022-11-06T04:48:08;1.27;;;0.40;;
20241;SDS011;10279;46.388;8.116;2022-11-06T04:50:41;0.20;;;0.20;;
20241;SDS011;10279;46.388;8.116;2022-11-06T04:53:10;0.30;;;0.30;;
20241;SDS011;10279;46.388;8.116;2022-11-06T04:55:48;0.50;;;0.30;;
20241;SDS011;10279;46.388;8.116;2022-11-06T04:58:17;0.40;;;0.40;;
20241;SDS011;10279;46.388;8.116;2022-11-06T05:00:45;3.33;;;0.40;;
20241;SDS011;10279;46.388;8.116;2022-11-06T05:03:13;1.07;;;0.50;;
20241;SDS011;10279;46.388;8.116;2022-11-06T05:05:41;0.60;;;0.53;;
20241;SDS011;10279;46.388;8.116;2022-11-06T05:08:13;0.97;;;0.90;;
20241;SDS011;10279;46.388;8.116;2022-11-06T05:10:41;2.00;;;1.67;;
20241;SDS011;10279;46.388;8.116;2022-11-06T05:13:09;2.10;;;0.90;;
20241;SDS011;10279;46.388;8.116;2022-11-06T05:15:37;0.57;;;0.57;;
20241;SDS011;10279;46.388;8.116;2022-11-06T05:18:04;0.40;;;0.40;;
20241;SDS011;10279;46.388;8.116;2022-11-06T05:20:32;0.30;;;0.30;;
20241;SDS011;10279;46.388;8.116;2022-11-06T05:23:00;1.13;;;0.70;;
20241;SDS011;10279;46.388;8.116;2022-11-06T05:25:31;0.53;;;0.53;;
20241;SDS011;10279;46.388;8.116;2022-11-06T05:27:59;0.80;;;0.57;;
20241;SDS011;10279;46.388;8.116;2022-11-06T05:30:27;1.20;;;0.50;;
20241;SDS011;10279;46.388;8.116;2022-11-06T05:32:54;0.67;;;0.50;;
20241;SDS011;10279;46.388;8.116;2022-11-06T05:35:22;0.40;;;0.37;;
20241;SDS011;10279;46.388;8.116;2022-11-06T05:37:49;0.40;;;0.40;;
20241;SDS011;10279;46.388;8.116;2022-11-06T05:40:20;0.47;;;0.40;;
20241;SDS011;10279;46.388;8.116;2022-11-06T05:42:47;1.00;;;0.80;;
20241;SDS011;10279;46.388;8.116;2022-11-06T05:45:14;0.70;;;0.63;;
20241;SDS011;10279;46.388;8.116;2022-11-06T05:47:42;0.40;;;0.40;;
20241;SDS011;10279;46.388;8.116;2022-11-06T05:50:09;2.60;;;0.70;;
20241;SDS011;10279;46.388;8.116;2022-11-06T05:52:37;0.70;;;0.70;;
20241;SDS011;10279;46.388;8.116;2022-11-06T05:55:05;2.27;;;0.80;;
20241;SDS011;10279;46.388;8.116;2022-11-06T05:57:38;0.67;;;0.50;;
20241;SDS011;10279;46.388;8.116;2022-11-06T06:00:06;0.70;;;0.70;;
20241;SDS011;10279;46.388;8.116;2022-11-06T06:02:34;0.50;;;0.40;;
20241;SDS011;10279;46.388;8.116;2022-11-06T06:05:02;0.50;;;0.50;;
20241;SDS011;10279;46.388;8.116;2022-11-06T06:07:30;0.50;;;0.50;;
20241;SDS011;10279;46.388;8.116;2022-11-06T06:09:57;0.67;;;0.40;;
20241;SDS011;10279;46.388;8.116;2022-11-06T06:12:24;0.63;;;0.40;;
20241;SDS011;10279;46.388;8.116;2022-11-06T06:14:52;0.30;;;0.30;;
20241;SDS011;10279;46.388;8.116;2022-11-06T06:17:20;0.40;;;0.40;;
20241;SDS011;10279;46.388;8.116;2022-11-06T06:19:47;0.20;;;0.20;;
20241;SDS011;10279;46.388;8.116;2022-11-06T06:22:14;1.67;;;0.30;;
20241;SDS011;10279;46.388;8.116;2022-11-06T06:24:42;1.13;;;0.60;;
20241;SDS011;10279;46.388;8.116;2022-11-06T06:27:09;0.63;;;0.60;;
20241;SDS011;10279;46.388;8.116;2022-11-06T06:29:37;0.90;;;0.40;;
20241;SDS011;10279;46.388;8.116;2022-11-06T06:32:04;0.30;;;0.30;;
20241;SDS011;10279;46.388;8.116;2022-11-06T06:34:32;0.87;;;0.50;;
20241;SDS011;10279;46.388;8.116;2022-11-06T06:37:02;1.60;;;0.60;;
20241;SDS011;10279;46.388;8.116;2022-11-06T06:39:30;0.40;;;0.40;;
20241;SDS011;10279;46.388;8.116;2022-11-06T06:41:57;1.03;;;0.47;;
20241;SDS011;10279;46.388;8.116;2022-11-06T06:44:24;0.47;;;0.40;;
20241;SDS011;10279;46.388;8.116;2022-11-06T06:46:52;1.67;;;0.70;;
20241;SDS011;10279;46.388;8.116;2022-11-06T06:49:19;1.00;;;0.70;;
20241;SDS011;10279;46.388;8.116;2022-11-06T06:51:47;1.17;;;0.50;;
20241;SDS011;10279;46.388;8.116;2022-11-06T06:54:14;4.23;;;1.27;;
20241;SDS011;10279;46.388;8.116;2022-11-06T06:56:42;4.50;;;2.00;;
20241;SDS011;10279;46.388;8.116;2022-11-06T06:59:09;1.93;;;1.40;;
20241;SDS011;10279;46.388;8.116;2022-11-06T07:01:36;1.40;;;0.83;;
20241;SDS011;10279;46.388;8.116;2022-11-06T07:04:04;2.07;;;1.03;;
20241;SDS011;10279;46.388;8.116;2022-11-06T07:06:32;2.00;;;1.10;;
20241;SDS011;10279;46.388;8.116;2022-11-06T07:08:59;1.73;;;0.80;;
20241;SDS011;10279;46.388;8.116;2022-11-06T07:11:26;1.87;;;1.13;;
20241;SDS011;10279;46.388;8.116;2022-11-06T07:13:54;2.43;;;1.60;;
20241;SDS011;10279;46.388;8.116;2022-11-06T07:16:24;2.23;;;1.27;;
20241;SDS011;10279;46.388;8.116;2022-11-06T07:18:52;1.00;;;0.90;;
20241;SDS011;10279;46.388;8.116;2022-11-06T07:21:20;1.43;;;1.00;;
20241;SDS011;10279;46.388;8.116;2022-11-06T07:23:47;1.50;;;1.20;;
20241;SDS011;10279;46.388;8.116;2022-11-06T07:26:15;3.20;;;1.70;;
20241;SDS011;10279;46.388;8.116;2022-11-06T07:28:42;0.80;;;0.70;;
20241;SDS011;10279;46.388;8.116;2022-11-06T07:31:10;1.40;;;0.80;;
20241;SDS011;10279;46.388;8.116;2022-11-06T07:33:40;1.40;;;0.60;;
20241;SDS011;10279;46.388;8.116;2022-11-06T07:36:09;0.80;;;0.80;;
20241;SDS011;10279;46.388;8.116;2022-11-06T07:38:37;1.33;;;1.20;;
20241;SDS011;10279;46.388;8.116;2022-11-06T07:41:12;1.83;;;1.60;;
20241;SDS011;10279;46.388;8.116;2022-11-06T07:43:40;1.37;;;1.00;;
20241;SDS011;10279;46.388;8.116;2022-11-06T07:46:09;0.47;;;0.47;;
20241;SDS011;10279;46.388;8.116;2022-11-06T07:48:37;0.50;;;0.50;;
20241;SDS011;10279;46.388;8.116;2022-11-06T07:51:05;0.90;;;0.70;;
20241;SDS011;10279;46.388;8.116;2022-11-06T07:53:33;1.00;;;0.90;;
20241;SDS011;10279;46.388;8.116;2022-11-06T07:56:01;2.93;;;0.80;;
20241;SDS011;10279;46.388;8.116;2022-11-06T07:58:28;0.80;;;0.80;;
20241;SDS011;10279;46.388;8.116;2022-11-06T08:00:56;2.17;;;0.90;;
20241;SDS011;10279;46.388;8.116;2022-11-06T08:03:24;1.00;;;0.70;;
20241;SDS011;10279;46.388;8.116;2022-11-06T08:05:53;1.10;;;0.80;;
20241;SDS011;10279;46.388;8.116;2022-11-06T08:08:20;0.90;;;0.60;;
20241;SDS011;10279;46.388;8.116;2022-11-06T08:10:51;0.80;;;0.53;;
20241;SDS011;10279;46.388;8.116;2022-11-06T08:13:19;0.90;;;0.60;;
20241;SDS011;10279;46.388;8.116;2022-11-06T08:15:46;0.40;;;0.40;;
20241;SDS011;10279;46.388;8.116;2022-11-06T08:18:14;0.97;;;0.60;;
20241;SDS011;10279;46.388;8.116;2022-11-06T08:20:42;1.40;;;0.57;;
20241;SDS011;10279;46.388;8.116;2022-11-06T08:23:10;0.77;;;0.40;;
20241;SDS011;10279;46.388;8.116;2022-11-06T08:25:38;0.70;;;0.70;;
20241;SDS011;10279;46.388;8.116;2022-11-06T08:28:06;0.70;;;0.40;;
20241;SDS011;10279;46.388;8.116;2022-11-06T08:30:33;0.33;;;0.30;;
20241;SDS011;10279;46.388;8.116;2022-11-06T08:33:02;0.40;;;0.40;;
20241;SDS011;10279;46.388;8.116;2022-11-06T08:35:30;0.30;;;0.20;;
20241;SDS011;10279;46.388;8.116;2022-11-06T08:37:57;1.63;;;0.60;;
20241;SDS011;10279;46.388;8.116;2022-11-06T08:40:25;1.47;;;0.80;;
20241;SDS011;10279;46.388;8.116;2022-11-06T08:43:03;1.23;;;1.10;;
20241;SDS011;10279;46.388;8.116;2022-11-06T08:45:31;55.70;;;25.03;;
20241;SDS011;10279;46.388;8.116;2022-11-06T08:48:02;75.57;;;32.70;;
20241;SDS011;10279;46.388;8.116;2022-11-06T08:50:30;19.77;;;12.10;;
20241;SDS011;10279;46.388;8.116;2022-11-06T08:52:58;4.27;;;3.30;;
20241;SDS011;10279;46.388;8.116;2022-11-06T08:55:30;5.53;;;3.27;;
20241;SDS011;10279;46.388;8.116;2022-11-06T08:57:57;3.73;;;2.37;;
20241;SDS011;10279;46.388;8.116;2022-11-06T09:00:24;0.73;;;0.60;;
20241;SDS011;10279;46.388;8.116;2022-11-06T09:02:59;2.80;;;1.07;;
20241;SDS011;10279;46.388;8.116;2022-11-06T09:05:27;1.83;;;1.50;;
20241;SDS011;10279;46.388;8.116;2022-11-06T09:07:55;1.60;;;1.20;;
20241;SDS011;10279;46.388;8.116;2022-11-06T09:10:23;1.30;;;0.70;;
20241;SDS011;10279;46.388;8.116;2022-11-06T09:12:51;2.67;;;0.87;;
20241;SDS011;10279;46.388;8.116;2022-11-06T09:15:18;0.60;;;0.60;;
20241;SDS011;10279;46.388;8.116;2022-11-06T09:17:47;0.90;;;0.70;;
20241;SDS011;10279;46.388;8.116;2022-11-06T09:20:15;0.50;;;0.50;;
20241;SDS011;10279;46.388;8.116;2022-11-06T09:22:44;1.50;;;0.50;;
20241;SDS011;10279;46.388;8.116;2022-11-06T09:25:11;0.67;;;0.60;;
20241;SDS011;10279;46.388;8.116;2022-11-06T09:27:49;0.50;;;0.50;;
20241;SDS011;10279;46.388;8.116;2022-11-06T09:30:24;1.53;;;0.60;;
20241;SDS011;10279;46.388;8.116;2022-11-06T09:32:53;1.70;;;0.50;;
20241;SDS011;10279;46.388;8.116;2022-11-06T09:35:21;0.50;;;0.40;;
20241;SDS011;10279;46.388;8.116;2022-11-06T09:37:49;0.73;;;0.50;;
20241;SDS011;10279;46.388;8.116;2022-11-06T09:45:41;0.40;;;0.40;;
20241;SDS011;10279;46.388;8.116;2022-11-06T09:50:50;0.87;;;0.50;;
20241;SDS011;10279;46.388;8.116;2022-11-06T09:53:21;1.60;;;0.70;;
20241;SDS011;10279;46.388;8.116;2022-11-06T09:55:51;1.57;;;1.10;;
20241;SDS011;10279;46.388;8.116;2022-11-06T09:58:21;1.90;;;1.40;;
20241;SDS011;10279;46.388;8.116;2022-11-06T10:00:50;2.30;;;1.67;;
20241;SDS011;10279;46.388;8.116;2022-11-06T10:03:19;2.37;;;1.40;;
20241;SDS011;10279;46.388;8.116;2022-11-06T10:05:50;1.67;;;1.40;;
20241;SDS011;10279;46.388;8.116;2022-11-06T10:08:21;0.70;;;0.70;;
20241;SDS011;10279;46.388;8.116;2022-11-06T10:33:58;0.30;;;0.30;;
20241;SDS011;10279;46.388;8.116;2022-11-06T10:36:41;0.50;;;0.50;;
20241;SDS011;10279;46.388;8.116;2022-11-06T10:39:22;0.63;;;0.50;;
20241;SDS011;10279;46.388;8.116;2022-11-06T10:41:56;0.50;;;0.40;;
20241;SDS011;10279;46.388;8.116;2022-11-06T10:44:29;1.00;;;0.60;;
20241;SDS011;10279;46.388;8.116;2022-11-06T10:46:59;0.93;;;0.50;;
20241;SDS011;10279;46.388;8.116;2022-11-06T10:57:23;0.77;;;0.57;;
20241;SDS011;10279;46.388;8.116;2022-11-06T10:59:52;1.23;;;0.70;;
20241;SDS011;10279;46.388;8.116;2022-11-06T11:04:51;1.20;;;0.40;;
20241;SDS011;10279;46.388;8.116;2022-11-06T11:07:23;0.43;;;0.40;;
20241;SDS011;10279;46.388;8.116;2022-11-06T11:09:51;0.40;;;0.40;;
20241;SDS011;10279;46.388;8.116;2022-11-06T11:12:23;0.60;;;0.60;;
20241;SDS011;10279;46.388;8.116;2022-11-06T11:18:07;0.40;;;0.40;;
20241;SDS011;10279;46.388;8.116;2022-11-06T11:20:35;0.53;;;0.50;;
20241;SDS011;10279;46.388;8.116;2022-11-06T11:23:09;0.40;;;0.30;;
20241;SDS011;10279;46.388;8.116;2022-11-06T11:25:38;0.40;;;0.40;;
20241;SDS011;10279;46.388;8.116;2022-11-06T11:28:11;2.10;;;0.47;;
20241;SDS011;10279;46.388;8.116;2022-11-06T11:31:29;0.40;;;0.40;;
20241;SDS011;10279;46.388;8.116;2022-11-06T11:33:37;0.40;;;0.40;;
20241;SDS011;10279;46.388;8.116;2022-11-06T11:36:05;0.57;;;0.33;;
20241;SDS011;10279;46.388;8.116;2022-11-06T11:38:34;0.40;;;0.40;;
20241;SDS011;10279;46.388;8.116;2022-11-06T11:41:44;0.40;;;0.40;;
20241;SDS011;10279;46.388;8.116;2022-11-06T11:46:29;0.47;;;0.40;;
20241;SDS011;10279;46.388;8.116;2022-11-06T11:48:57;0.60;;;0.60;;
20241;SDS011;10279;46.388;8.116;2022-11-06T11:51:26;0.40;;;0.40;;
20241;SDS011;10279;46.388;8.116;2022-11-06T11:56:31;1.60;;;0.30;;
20241;SDS011;10279;46.388;8.116;2022-11-06T11:59:19;0.37;;;0.37;;
20241;SDS011;10279;46.388;8.116;2022-11-06T12:01:47;1.63;;;0.40;;
20241;SDS011;10279;46.388;8.116;2022-11-06T12:04:22;0.70;;;0.57;;
20241;SDS011;10279;46.388;8.116;2022-11-06T12:06:55;0.70;;;0.60;;
20241;SDS011;10279;46.388;8.116;2022-11-06T12:09:23;1.57;;;1.17;;
20241;SDS011;10279;46.388;8.116;2022-11-06T12:11:51;1.07;;;0.80;;
20241;SDS011;10279;46.388;8.116;2022-11-06T12:16:48;0.43;;;0.43;;
20241;SDS011;10279;46.388;8.116;2022-11-06T12:19:16;0.83;;;0.60;;
20241;SDS011;10279;46.388;8.116;2022-11-06T12:21:45;0.40;;;0.40;;
20241;SDS011;10279;46.388;8.116;2022-11-06T12:24:17;0.47;;;0.47;;
20241;SDS011;10279;46.388;8.116;2022-11-06T12:27:30;0.77;;;0.60;;
20241;SDS011;10279;46.388;8.116;2022-11-06T12:29:41;0.60;;;0.50;;
20241;SDS011;10279;46.388;8.116;2022-11-06T12:39:46;0.68;;;0.50;;
20241;SDS011;10279;46.388;8.116;2022-11-06T12:42:17;0.40;;;0.40;;
20241;SDS011;10279;46.388;8.116;2022-11-06T12:44:46;0.45;;;0.45;;
20241;SDS011;10279;46.388;8.116;2022-11-06T12:50:11;0.47;;;0.40;;
20241;SDS011;10279;46.388;8.116;2022-11-06T12:55:30;0.45;;;0.40;;
20241;SDS011;10279;46.388;8.116;2022-11-06T13:00:58;0.32;;;0.32;;
20241;SDS011;10279;46.388;8.116;2022-11-06T13:14:03;0.82;;;0.50;;
20241;SDS011;10279;46.388;8.116;2022-11-06T13:19:06;0.82;;;0.32;;
20241;SDS011;10279;46.388;8.116;2022-11-06T13:24:11;0.30;;;0.30;;
20241;SDS011;10279;46.388;8.116;2022-11-06T13:26:42;0.50;;;0.40;;
20241;SDS011;10279;46.388;8.116;2022-11-06T13:29:13;0.37;;;0.30;;
20241;SDS011;10279;46.388;8.116;2022-11-06T13:31:43;0.30;;;0.30;;
20241;SDS011;10279;46.388;8.116;2022-11-06T13:34:17;1.23;;;0.40;;
20241;SDS011;10279;46.388;8.116;2022-11-06T13:36:48;0.40;;;0.40;;
20241;SDS011;10279;46.388;8.116;2022-11-06T13:41:46;1.53;;;0.60;;
20241;SDS011;10279;46.388;8.116;2022-11-06T13:44:13;0.50;;;0.50;;
20241;SDS011;10279;46.388;8.116;2022-11-06T13:49:50;0.43;;;0.43;;
20241;SDS011;10279;46.388;8.116;2022-11-06T13:52:24;0.60;;;0.50;;
20241;SDS011;10279;46.388;8.116;2022-11-06T13:57:54;1.13;;;0.63;;
20241;SDS011;10279;46.388;8.116;2022-11-06T14:08:05;0.80;;;0.50;;
20241;SDS011;10279;46.388;8.116;2022-11-06T14:10:37;1.10;;;0.63;;
20241;SDS011;10279;46.388;8.116;2022-11-06T14:13:11;0.80;;;0.63;;
20241;SDS011;10279;46.388;8.116;2022-11-06T14:15:40;1.07;;;0.93;;
20241;SDS011;10279;46.388;8.116;2022-11-06T14:18:12;0.70;;;0.70;;
20241;SDS011;10279;46.388;8.116;2022-11-06T14:20:40;0.73;;;0.60;;
20241;SDS011;10279;46.388;8.116;2022-11-06T14:28:31;1.67;;;0.60;;
20241;SDS011;10279;46.388;8.116;2022-11-06T14:30:59;2.10;;;0.80;;
20241;SDS011;10279;46.388;8.116;2022-11-06T14:38:50;1.07;;;0.70;;
20241;SDS011;10279;46.388;8.116;2022-11-06T14:44:01;1.80;;;0.97;;
20241;SDS011;10279;46.388;8.116;2022-11-06T14:46:30;1.60;;;0.83;;
20241;SDS011;10279;46.388;8.116;2022-11-06T14:51:56;1.30;;;0.83;;
20241;SDS011;10279;46.388;8.116;2022-11-06T14:54:24;1.30;;;1.10;;
20241;SDS011;10279;46.388;8.116;2022-11-06T14:56:52;0.90;;;0.80;;
20241;SDS011;10279;46.388;8.116;2022-11-06T14:59:21;1.67;;;0.97;;
20241;SDS011;10279;46.388;8.116;2022-11-06T15:01:56;1.70;;;1.13;;
20241;SDS011;10279;46.388;8.116;2022-11-06T15:04:25;1.17;;;0.83;;
20241;SDS011;10279;46.388;8.116;2022-11-06T15:06:54;1.50;;;1.00;;
20241;SDS011;10279;46.388;8.116;2022-11-06T15:12:05;1.00;;;0.90;;
20241;SDS011;10279;46.388;8.116;2022-11-06T15:19:32;1.10;;;0.70;;
20241;SDS011;10279;46.388;8.116;2022-11-06T15:22:13;1.13;;;0.80;;
20241;SDS011;10279;46.388;8.116;2022-11-06T15:24:42;2.17;;;1.73;;
20241;SDS011;10279;46.388;8.116;2022-11-06T15:27:21;1.87;;;1.17;;
20241;SDS011;10279;46.388;8.116;2022-11-06T15:29:50;0.77;;;0.77;;
20241;SDS011;10279;46.388;8.116;2022-11-06T15:32:21;0.80;;;0.70;;
20241;SDS011;10279;46.388;8.116;2022-11-06T15:37:23;0.93;;;0.83;;
20241;SDS011;10279;46.388;8.116;2022-11-06T15:39:53;1.27;;;0.87;;
20241;SDS011;10279;46.388;8.116;2022-11-06T15:42:27;1.23;;;0.90;;
20241;SDS011;10279;46.388;8.116;2022-11-06T15:45:09;1.43;;;0.70;;
20241;SDS011;10279;46.388;8.116;2022-11-06T15:47:52;1.53;;;0.87;;
20241;SDS011;10279;46.388;8.116;2022-11-06T15:52:47;0.80;;;0.80;;
20241;SDS011;10279;46.388;8.116;2022-11-06T15:57:51;1.00;;;0.63;;
20241;SDS011;10279;46.388;8.116;2022-11-06T16:00:20;0.60;;;0.60;;
20241;SDS011;10279;46.388;8.116;2022-11-06T16:02:50;3.00;;;0.70;;
20241;SDS011;10279;46.388;8.116;2022-11-06T16:05:18;0.93;;;0.70;;
20241;SDS011;10279;46.388;8.116;2022-11-06T16:07:46;1.10;;;0.80;;
20241;SDS011;10279;46.388;8.116;2022-11-06T16:10:15;1.27;;;0.90;;
20241;SDS011;10279;46.388;8.116;2022-11-06T16:12:42;1.10;;;0.90;;
20241;SDS011;10279;46.388;8.116;2022-11-06T16:18:03;0.93;;;0.73;;
20241;SDS011;10279;46.388;8.116;2022-11-06T16:20:31;0.63;;;0.60;;
20241;SDS011;10279;46.388;8.116;2022-11-06T16:23:02;0.60;;;0.60;;
20241;SDS011;10279;46.388;8.116;2022-11-06T16:25:30;2.27;;;1.30;;
20241;SDS011;10279;46.388;8.116;2022-11-06T16:27:57;2.20;;;1.20;;
20241;SDS011;10279;46.388;8.116;2022-11-06T16:30:24;1.37;;;1.10;;
20241;SDS011;10279;46.388;8.116;2022-11-06T16:32:52;1.10;;;0.90;;
20241;SDS011;10279;46.388;8.116;2022-11-06T16:35:29;0.97;;;0.80;;
20241;SDS011;10279;46.388;8.116;2022-11-06T16:38:09;0.90;;;0.80;;
20241;SDS011;10279;46.388;8.116;2022-11-06T16:41:05;0.80;;;0.63;;
20241;SDS011;10279;46.388;8.116;2022-11-06T16:43:32;2.50;;;0.70;;
20241;SDS011;10279;46.388;8.116;2022-11-06T16:46:00;2.50;;;0.77;;
20241;SDS011;10279;46.388;8.116;2022-11-06T16:51:05;1.03;;;0.80;;
20241;SDS011;10279;46.388;8.116;2022-11-06T16:53:40;1.30;;;1.03;;
20241;SDS011;10279;46.388;8.116;2022-11-06T16:56:12;0.77;;;0.70;;
20241;SDS011;10279;46.388;8.116;2022-11-06T16:58:45;1.13;;;0.70;;
20241;SDS011;10279;46.388;8.116;2022-11-06T17:01:14;1.10;;;0.80;;
20241;SDS011;10279;46.388;8.116;2022-11-06T17:03:48;1.70;;;1.27;;
20241;SDS011;10279;46.388;8.116;2022-11-06T17:06:20;3.10;;;0.90;;
20241;SDS011;10279;46.388;8.116;2022-11-06T17:11:30;1.20;;;1.03;;
20241;SDS011;10279;46.388;8.116;2022-11-06T17:13:57;1.10;;;1.00;;
20241;SDS011;10279;46.388;8.116;2022-11-06T17:16:26;1.47;;;0.93;;
20241;SDS011;10279;46.388;8.116;2022-11-06T17:18:54;1.60;;;1.23;;
20241;SDS011;10279;46.388;8.116;2022-11-06T17:21:22;1.40;;;1.13;;
20241;SDS011;10279;46.388;8.116;2022-11-06T17:23:50;1.40;;;1.20;;
20241;SDS011;10279;46.388;8.116;2022-11-06T17:26:28;2.03;;;1.30;;
20241;SDS011;10279;46.388;8.116;2022-11-06T17:28:56;1.70;;;1.17;;
20241;SDS011;10279;46.388;8.116;2022-11-06T17:31:23;1.60;;;1.10;;
20241;SDS011;10279;46.388;8.116;2022-11-06T17:33:51;1.50;;;1.23;;
20241;SDS011;10279;46.388;8.116;2022-11-06T17:36:20;1.30;;;1.00;;
20241;SDS011;10279;46.388;8.116;2022-11-06T17:38:50;2.60;;;1.10;;
20241;SDS011;10279;46.388;8.116;2022-11-06T17:41:18;0.80;;;0.80;;
20241;SDS011;10279;46.388;8.116;2022-11-06T17:43:59;1.57;;;0.80;;
20241;SDS011;10279;46.388;8.116;2022-11-06T17:46:28;0.43;;;0.43;;
20241;SDS011;10279;46.388;8.116;2022-11-06T17:48:56;1.13;;;0.90;;
20241;SDS011;10279;46.388;8.116;2022-11-06T17:51:23;2.90;;;0.70;;
20241;SDS011;10279;46.388;8.116;2022-11-06T17:54:10;1.97;;;1.23;;
20241;SDS011;10279;46.388;8.116;2022-11-06T17:56:37;1.73;;;1.20;;
20241;SDS011;10279;46.388;8.116;2022-11-06T17:59:06;1.90;;;0.90;;
20241;SDS011;10279;46.388;8.116;2022-11-06T18:01:34;2.37;;;0.80;;
20241;SDS011;10279;46.388;8.116;2022-11-06T18:04:02;2.37;;;1.33;;
20241;SDS011;10279;46.388;8.116;2022-11-06T18:06:30;1.50;;;1.40;;
20241;SDS011;10279;46.388;8.116;2022-11-06T18:08:58;1.70;;;1.27;;